Time;durP1;ratioP1;P1;durP2;ratioP2;P2;SDS_P1;SDS_P2;PMS_P1;PMS_P2;Temp;Humidity;BMP_temperature;BMP_pressure;BME280_temperature;BME280_humidity;BME280_pressure;Samples;Min_cycle;Max_cycle;Signal;HPM_P1;HPM_P2
2022/03/08 00:01:58;;;;;;;;;;;2.20;99.90;;;;;;5016706;28;19905;-81
2022/03/08 00:04:25;;;;;;;;;;;2.20;99.90;;;;;;5015960;28;20001;-82
2022/03/08 00:06:51;;;;;;;;;;;2.20;99.90;;;;;;5011958;28;20012;-82
2022/03/08 00:09:17;;;;;;;;;;;2.20;99.90;;;;;;5017547;28;19945;-82
2022/03/08 00:11:42;;;;;;;;;;;2.20;99.90;;;;;;5018015;28;19910;-82
2022/03/08 00:14:08;;;;;;;;;;;2.20;99.90;;;;;;5015641;28;19918;-82
2022/03/08 00:16:33;;;;;;;;;;;2.10;99.90;;;;;;5017103;28;19918;-82
2022/03/08 00:18:59;;;;;;;;;;;2.10;99.90;;;;;;5021793;28;19913;-82
2022/03/08 00:21:24;;;;;;;;;;;2.10;99.90;;;;;;5037599;28;19910;-82
2022/03/08 00:23:50;;;;;;;;;;;2.10;99.90;;;;;;5018934;28;20385;-82
2022/03/08 00:26:18;;;;;;;;;;;2.10;99.90;;;;;;5019764;28;19909;-82
2022/03/08 00:28:44;;;;;;;;;;;2.10;99.90;;;;;;5020761;28;19924;-82
2022/03/08 00:31:09;;;;;;;;;;;2.20;99.90;;;;;;5020650;28;19913;-82
2022/03/08 00:33:35;;;;;;;;;;;2.00;99.90;;;;;;5021061;28;19917;-82
2022/03/08 00:36:00;;;;;;;;;;;2.10;99.90;;;;;;5033556;28;19910;-82
2022/03/08 00:38:26;;;;;;;;;;;1.90;99.90;;;;;;5002033;28;19918;-82
2022/03/08 00:40:51;;;;;;;;;;;1.90;99.90;;;;;;5001503;28;19914;-82
2022/03/08 00:43:17;;;;;;;;;;;1.90;99.90;;;;;;5013930;28;19940;-82
2022/03/08 00:45:43;;;;;;;;;;;1.80;99.90;;;;;;5020246;28;19914;-82
2022/03/08 00:48:08;;;;;;;;;;;1.80;99.90;;;;;;5032864;28;19937;-82
2022/03/08 00:50:34;;;;;;;;;;;1.70;99.90;;;;;;5000527;28;20365;-82
2022/03/08 00:53:00;;;;;;;;;;;1.70;99.90;;;;;;5001811;28;19914;-82
2022/03/08 00:55:27;;;;;;;;;;;1.70;99.90;;;;;;5036873;28;20313;-82
2022/03/08 00:57:53;;;;;;;;;;;1.70;99.90;;;;;;5032068;28;22146;-82
2022/03/08 01:00:19;;;;;;;;;;;1.60;99.90;;;;;;5018706;28;19909;-82
2022/03/08 01:02:45;;;;;;;;;;;1.70;99.90;;;;;;5019298;28;19910;-82
2022/03/08 01:05:10;;;;;;;;;;;1.60;99.90;;;;;;5018991;28;19960;-82
2022/03/08 01:07:36;;;;;;;;;;;1.60;99.90;;;;;;5019368;28;19910;-81
2022/03/08 01:10:04;;;;;;;;;;;1.60;99.90;;;;;;5020693;28;20358;-82
2022/03/08 01:12:29;;;;;;;;;;;1.60;99.90;;;;;;5018834;28;20040;-82
2022/03/08 01:14:55;;;;;;;;;;;1.60;99.90;;;;;;5019299;28;19957;-82
2022/03/08 01:17:20;;;;;;;;;;;1.60;99.90;;;;;;5023518;28;19921;-83
2022/03/08 01:19:46;;;;;;;;;;;1.60;99.90;;;;;;5019576;28;19932;-82
2022/03/08 01:22:11;;;;;;;;;;;1.60;99.90;;;;;;5034993;28;20321;-82
2022/03/08 01:24:37;;;;;;;;;;;1.60;99.90;;;;;;5019651;28;19918;-82
2022/03/08 01:27:03;;;;;;;;;;;1.60;99.90;;;;;;5020900;28;20000;-83
2022/03/08 01:29:28;;;;;;;;;;;1.60;99.90;;;;;;5020665;28;19913;-82
2022/03/08 01:31:54;;;;;;;;;;;1.60;99.90;;;;;;5030610;28;19913;-82
2022/03/08 01:34:19;;;;;;;;;;;1.50;99.90;;;;;;5033898;28;19914;-82
2022/03/08 01:36:45;;;;;;;;;;;1.50;99.90;;;;;;5018366;28;20360;-82
2022/03/08 01:39:10;;;;;;;;;;;1.50;99.90;;;;;;5018457;28;19917;-82
2022/03/08 01:41:36;;;;;;;;;;;1.50;99.90;;;;;;5018777;28;20365;-82
2022/03/08 01:44:02;;;;;;;;;;;1.50;99.90;;;;;;5018005;28;19951;-82
2022/03/08 01:46:27;;;;;;;;;;;1.50;99.90;;;;;;5018795;28;19945;-82
2022/03/08 01:48:53;;;;;;;;;;;1.50;99.90;;;;;;5018195;28;19916;-82
2022/03/08 01:51:19;;;;;;;;;;;1.50;99.90;;;;;;5017180;28;19952;-82
2022/03/08 01:53:44;;;;;;;;;;;1.40;99.90;;;;;;5026988;28;19928;-82
2022/03/08 01:56:11;;;;;;;;;;;1.40;99.90;;;;;;5030510;28;19973;-82
2022/03/08 01:58:37;;;;;;;;;;;1.40;99.90;;;;;;5032981;28;19916;-82
2022/03/08 02:01:03;;;;;;;;;;;1.40;99.90;;;;;;5030462;28;20366;-82
2022/03/08 02:03:29;;;;;;;;;;;1.40;99.90;;;;;;4997715;28;19910;-82
2022/03/08 02:05:55;;;;;;;;;;;1.30;99.90;;;;;;4998903;28;19920;-82
2022/03/08 02:08:20;;;;;;;;;;;1.30;99.90;;;;;;5018142;28;19925;-82
2022/03/08 02:10:46;;;;;;;;;;;1.30;99.90;;;;;;5019186;28;20294;-82
2022/03/08 02:13:11;;;;;;;;;;;1.30;99.90;;;;;;5017464;28;19917;-81
2022/03/08 02:15:37;;;;;;;;;;;1.30;99.90;;;;;;5010204;28;19918;-82
2022/03/08 02:18:02;;;;;;;;;;;1.20;99.90;;;;;;5018227;28;20374;-81
2022/03/08 02:20:29;;;;;;;;;;;1.10;99.90;;;;;;5015802;28;19914;-82
2022/03/08 02:22:54;;;;;;;;;;;1.20;99.90;;;;;;5013263;28;20027;-82
2022/03/08 02:25:20;;;;;;;;;;;1.10;99.90;;;;;;5019019;28;19961;-82
2022/03/08 02:27:47;;;;;;;;;;;1.10;99.90;;;;;;5017420;28;19909;-82
2022/03/08 02:30:14;;;;;;;;;;;1.10;99.90;;;;;;5018491;28;19913;-82
2022/03/08 02:32:40;;;;;;;;;;;1.00;99.90;;;;;;5015253;28;19920;-82
2022/03/08 02:35:10;;;;;;;;;;;1.00;99.90;;;;;;5016345;28;19921;-82
2022/03/08 02:37:36;;;;;;;;;;;1.00;99.90;;;;;;5016953;28;19909;-82
2022/03/08 02:40:03;;;;;;;;;;;1.10;99.90;;;;;;5016134;28;19917;-82
2022/03/08 02:42:28;;;;;;;;;;;1.10;99.90;;;;;;5029732;28;19941;-82
2022/03/08 02:44:54;;;;;;;;;;;1.10;99.90;;;;;;5013246;28;19921;-83
2022/03/08 02:47:19;;;;;;;;;;;1.10;99.90;;;;;;5001682;28;19917;-82
2022/03/08 02:49:44;;;;;;;;;;;1.10;99.90;;;;;;5005579;28;20052;-82
2022/03/08 02:52:10;;;;;;;;;;;1.10;99.90;;;;;;5017074;28;19909;-82
2022/03/08 02:54:35;;;;;;;;;;;1.10;99.90;;;;;;5018376;28;19933;-82
2022/03/08 02:57:01;;;;;;;;;;;1.10;99.90;;;;;;5017629;28;19914;-82
2022/03/08 02:59:26;;;;;;;;;;;1.20;99.90;;;;;;5017635;28;19914;-82
2022/03/08 03:01:52;;;;;;;;;;;1.20;99.90;;;;;;5019155;28;20514;-83
2022/03/08 03:04:17;;;;;;;;;;;1.20;99.90;;;;;;5030744;28;20017;-82
2022/03/08 03:06:43;;;;;;;;;;;1.20;99.90;;;;;;5000941;28;19913;-82
2022/03/08 03:09:09;;;;;;;;;;;1.20;99.90;;;;;;5006165;28;19914;-82
2022/03/08 03:11:34;;;;;;;;;;;1.20;99.90;;;;;;5007052;28;19917;-82
2022/03/08 03:14:00;;;;;;;;;;;1.20;99.90;;;;;;5011380;28;19920;-82
2022/03/08 03:16:26;;;;;;;;;;;1.20;99.90;;;;;;5017842;28;20367;-82
2022/03/08 03:18:52;;;;;;;;;;;1.20;99.90;;;;;;4998369;28;20289;-82
2022/03/08 03:21:17;;;;;;;;;;;1.10;99.90;;;;;;4999118;28;19921;-82
2022/03/08 03:23:42;;;;;;;;;;;1.20;99.90;;;;;;4998231;28;20393;-82
2022/03/08 03:26:08;;;;;;;;;;;1.10;99.90;;;;;;5016045;28;20352;-82
2022/03/08 03:28:33;;;;;;;;;;;1.10;99.90;;;;;;5016809;28;19917;-82
2022/03/08 03:30:59;;;;;;;;;;;1.10;99.90;;;;;;5018901;28;19913;-82
2022/03/08 03:33:24;;;;;;;;;;;1.10;99.90;;;;;;5030448;28;19910;-82
2022/03/08 03:35:50;;;;;;;;;;;1.10;99.90;;;;;;5012476;28;20476;-82
2022/03/08 03:38:15;;;;;;;;;;;1.10;99.90;;;;;;5018221;28;20000;-83
2022/03/08 03:40:41;;;;;;;;;;;1.00;99.90;;;;;;5001994;28;19952;-82
2022/03/08 03:43:06;;;;;;;;;;;1.00;99.90;;;;;;5018002;28;19918;-82
2022/03/08 03:45:32;;;;;;;;;;;1.00;99.90;;;;;;5018607;28;19992;-84
2022/03/08 03:47:57;;;;;;;;;;;1.00;99.90;;;;;;5019547;28;19920;-83
2022/03/08 03:50:23;;;;;;;;;;;1.10;99.90;;;;;;5015457;28;19924;-83
2022/03/08 03:52:48;;;;;;;;;;;1.00;99.90;;;;;;5015988;28;19914;-83
2022/03/08 03:55:14;;;;;;;;;;;1.00;99.90;;;;;;5016048;28;20008;-83
2022/03/08 03:57:40;;;;;;;;;;;1.00;99.90;;;;;;5016167;28;20393;-82
2022/03/08 04:00:06;;;;;;;;;;;1.00;99.90;;;;;;5018190;28;19919;-82
2022/03/08 04:02:32;;;;;;;;;;;1.00;99.90;;;;;;5022002;28;19921;-83
2022/03/08 04:04:57;;;;;;;;;;;1.00;99.90;;;;;;5020785;28;19918;-83
2022/03/08 04:07:23;;;;;;;;;;;1.00;99.90;;;;;;5017661;28;19944;-83
2022/03/08 04:09:49;;;;;;;;;;;1.00;99.90;;;;;;5022506;28;19935;-82
2022/03/08 04:12:15;;;;;;;;;;;1.00;99.90;;;;;;5019979;28;20529;-82
2022/03/08 04:14:40;;;;;;;;;;;1.00;99.90;;;;;;5033167;28;19914;-83
2022/03/08 04:17:06;;;;;;;;;;;1.00;99.90;;;;;;5021083;28;19913;-83
2022/03/08 04:19:31;;;;;;;;;;;1.00;99.90;;;;;;5019587;28;19925;-83
2022/03/08 04:21:57;;;;;;;;;;;1.00;99.90;;;;;;5020621;28;20476;-83
2022/03/08 04:24:23;;;;;;;;;;;1.00;99.90;;;;;;5020752;28;19917;-82
2022/03/08 04:26:48;;;;;;;;;;;1.00;99.90;;;;;;5038678;28;20339;-83
2022/03/08 04:29:14;;;;;;;;;;;1.10;99.90;;;;;;5017678;28;19917;-83
2022/03/08 04:31:39;;;;;;;;;;;1.10;99.90;;;;;;5020742;28;19931;-83
2022/03/08 04:34:05;;;;;;;;;;;1.10;99.90;;;;;;5019663;28;19932;-83
2022/03/08 04:36:30;;;;;;;;;;;1.10;99.90;;;;;;5022288;28;19920;-83
2022/03/08 04:38:56;;;;;;;;;;;1.00;99.90;;;;;;5017628;28;20000;-83
2022/03/08 04:41:21;;;;;;;;;;;1.00;99.90;;;;;;5021988;28;19916;-83
2022/03/08 04:43:47;;;;;;;;;;;1.10;99.90;;;;;;5021657;28;19985;-83
2022/03/08 04:46:12;;;;;;;;;;;1.10;99.90;;;;;;5021220;28;19913;-84
2022/03/08 04:48:37;;;;;;;;;;;1.10;99.90;;;;;;5039733;28;19925;-83
2022/03/08 04:51:03;;;;;;;;;;;1.10;99.90;;;;;;5036010;28;19913;-83
2022/03/08 04:53:28;;;;;;;;;;;1.10;99.90;;;;;;5025237;28;19917;-82
2022/03/08 04:55:54;;;;;;;;;;;1.10;99.90;;;;;;5019973;28;19924;-84
2022/03/08 04:58:19;;;;;;;;;;;1.10;99.90;;;;;;5020643;28;19920;-83
2022/03/08 05:00:45;;;;;;;;;;;1.10;99.90;;;;;;5020819;28;19917;-82
2022/03/08 05:03:10;;;;;;;;;;;1.10;99.90;;;;;;5054233;28;19913;-82
2022/03/08 05:05:38;;;;;;;;;;;1.10;99.90;;;;;;5026284;28;19918;-83
2022/03/08 05:08:04;;;;;;;;;;;1.10;99.90;;;;;;5021152;28;19917;-83
2022/03/08 05:10:30;;;;;;;;;;;1.10;99.90;;;;;;5022650;28;19914;-83
2022/03/08 05:12:55;;;;;;;;;;;1.10;99.90;;;;;;5019643;28;19910;-84
2022/03/08 05:15:21;;;;;;;;;;;1.10;99.90;;;;;;5021552;28;20017;-83
2022/03/08 05:17:46;;;;;;;;;;;1.10;99.90;;;;;;5021179;28;19952;-82
2022/03/08 05:20:12;;;;;;;;;;;1.10;99.90;;;;;;5020247;28;19941;-83
2022/03/08 05:22:37;;;;;;;;;;;1.10;99.90;;;;;;5018950;28;19972;-83
2022/03/08 05:25:03;;;;;;;;;;;1.10;99.90;;;;;;5019343;28;19993;-83
2022/03/08 05:27:29;;;;;;;;;;;1.10;99.90;;;;;;5021678;28;19909;-82
2022/03/08 05:29:54;;;;;;;;;;;1.10;99.90;;;;;;5018530;28;19917;-83
2022/03/08 05:32:20;;;;;;;;;;;1.00;99.90;;;;;;5019719;28;19952;-83
2022/03/08 05:34:45;;;;;;;;;;;1.10;99.90;;;;;;5020396;28;19965;-83
2022/03/08 05:37:11;;;;;;;;;;;1.00;99.90;;;;;;5021609;28;20368;-82
2022/03/08 05:39:37;;;;;;;;;;;1.00;99.90;;;;;;5020403;28;19968;-83
2022/03/08 05:42:02;;;;;;;;;;;1.00;99.90;;;;;;5017722;28;19929;-82
2022/03/08 05:44:28;;;;;;;;;;;1.00;99.90;;;;;;5019884;28;19924;-83
2022/03/08 05:46:53;;;;;;;;;;;1.00;99.90;;;;;;5020202;28;19976;-83
2022/03/08 05:49:19;;;;;;;;;;;1.00;99.90;;;;;;5019799;28;19963;-83
2022/03/08 05:51:44;;;;;;;;;;;1.00;99.90;;;;;;5019272;28;19936;-83
2022/03/08 05:54:10;;;;;;;;;;;1.00;99.90;;;;;;5019997;28;20271;-83
2022/03/08 05:56:35;;;;;;;;;;;1.00;99.90;;;;;;5017072;28;20012;-82
2022/03/08 05:59:00;;;;;;;;;;;1.10;99.90;;;;;;5023012;28;19948;-82
2022/03/08 06:01:26;;;;;;;;;;;1.10;99.90;;;;;;5018635;28;19909;-82
2022/03/08 06:03:51;;;;;;;;;;;1.10;99.90;;;;;;5020529;28;19928;-83
2022/03/08 06:06:17;;;;;;;;;;;1.10;99.90;;;;;;5019408;28;19910;-83
2022/03/08 06:08:42;;;;;;;;;;;1.10;99.90;;;;;;5018083;28;20543;-82
2022/03/08 06:11:08;;;;;;;;;;;1.10;99.90;;;;;;5018055;28;19909;-83
2022/03/08 06:13:33;;;;;;;;;;;1.10;99.90;;;;;;5017093;28;19909;-82
2022/03/08 06:15:59;;;;;;;;;;;1.20;99.90;;;;;;5032836;28;19959;-82
2022/03/08 06:18:24;;;;;;;;;;;1.20;99.90;;;;;;5025554;28;20044;-83
2022/03/08 06:20:50;;;;;;;;;;;1.20;99.90;;;;;;5018862;28;19913;-82
2022/03/08 06:23:15;;;;;;;;;;;1.20;99.90;;;;;;5017506;28;19916;-83
2022/03/08 06:25:42;;;;;;;;;;;1.30;99.90;;;;;;5019416;28;19914;-83
2022/03/08 06:28:08;;;;;;;;;;;1.30;99.90;;;;;;5019108;28;19916;-82
2022/03/08 06:30:34;;;;;;;;;;;1.40;99.90;;;;;;5019158;28;20003;-83
2022/03/08 06:33:00;;;;;;;;;;;1.40;99.90;;;;;;5017546;28;19909;-82
2022/03/08 06:35:25;;;;;;;;;;;1.50;99.90;;;;;;5018091;28;19955;-82
2022/03/08 06:37:51;;;;;;;;;;;1.50;99.90;;;;;;5017508;28;20362;-81
2022/03/08 06:40:16;;;;;;;;;;;1.70;99.90;;;;;;5015217;28;19917;-81
2022/03/08 06:42:42;;;;;;;;;;;1.90;99.90;;;;;;5015490;28;19910;-81
2022/03/08 06:45:08;;;;;;;;;;;2.10;99.90;;;;;;5015077;28;20297;-82
2022/03/08 06:47:33;;;;;;;;;;;2.20;99.90;;;;;;5017040;28;19932;-81
2022/03/08 06:49:59;;;;;;;;;;;2.20;99.90;;;;;;5015567;28;19996;-81
2022/03/08 06:52:25;;;;;;;;;;;2.40;99.90;;;;;;5014722;28;19921;-81
2022/03/08 06:54:50;;;;;;;;;;;3.00;99.90;;;;;;5014987;28;20271;-81
2022/03/08 06:57:15;;;;;;;;;;;3.40;99.90;;;;;;5014414;28;19913;-81
2022/03/08 06:59:41;;;;;;;;;;;5.30;99.90;;;;;;5016152;28;19949;-82
2022/03/08 07:02:07;;;;;;;;;;;8.30;99.90;;;;;;5017709;28;20359;-83
2022/03/08 07:04:32;;;;;;;;;;;10.90;99.90;;;;;;5015119;28;19993;-82
2022/03/08 07:06:58;;;;;;;;;;;12.90;99.90;;;;;;5016701;28;19921;-82
2022/03/08 07:09:23;;;;;;;;;;;14.50;99.90;;;;;;5016663;28;19940;-83
2022/03/08 07:11:49;;;;;;;;;;;14.80;99.90;;;;;;5016818;28;19913;-82
2022/03/08 07:14:15;;;;;;;;;;;15.20;99.90;;;;;;5012138;28;19917;-82
2022/03/08 07:16:41;;;;;;;;;;;16.70;99.90;;;;;;5015650;28;19913;-80
2022/03/08 07:19:07;;;;;;;;;;;16.50;99.90;;;;;;5012306;28;20417;-81
2022/03/08 07:21:33;;;;;;;;;;;16.70;99.90;;;;;;5019209;28;19953;-81
2022/03/08 07:23:58;;;;;;;;;;;16.30;99.90;;;;;;5010221;28;19929;-81
2022/03/08 07:26:23;;;;;;;;;;;17.30;99.90;;;;;;5014881;28;19967;-81
2022/03/08 07:28:49;;;;;;;;;;;17.60;99.90;;;;;;5015162;28;19920;-81
2022/03/08 07:31:14;;;;;;;;;;;19.00;99.90;;;;;;5015276;28;19996;-81
2022/03/08 07:33:41;;;;;;;;;;;19.10;99.90;;;;;;5015403;28;19917;-80
2022/03/08 07:36:06;;;;;;;;;;;19.30;99.90;;;;;;5015812;28;19913;-83
2022/03/08 07:38:32;;;;;;;;;;;20.00;99.90;;;;;;5014634;28;19917;-83
2022/03/08 07:40:57;;;;;;;;;;;19.60;99.90;;;;;;5011273;28;19929;-83
2022/03/08 07:43:22;;;;;;;;;;;19.00;99.90;;;;;;5008676;28;19921;-83
2022/03/08 07:45:48;;;;;;;;;;;20.20;99.90;;;;;;5003814;28;20282;-83
2022/03/08 07:48:13;;;;;;;;;;;18.50;99.90;;;;;;5017705;28;19920;-84
2022/03/08 07:50:39;;;;;;;;;;;18.60;99.90;;;;;;5025033;28;19921;-83
2022/03/08 07:53:05;;;;;;;;;;;19.00;99.90;;;;;;5026001;28;19920;-83
2022/03/08 07:55:30;;;;;;;;;;;19.60;99.90;;;;;;5021412;28;19928;-83
2022/03/08 07:58:00;;;;;;;;;;;21.20;99.90;;;;;;5022045;28;19937;-83
2022/03/08 08:00:25;;;;;;;;;;;20.10;99.90;;;;;;5024841;28;19921;-83
2022/03/08 08:02:51;;;;;;;;;;;20.50;99.90;;;;;;5019808;28;19921;-83
2022/03/08 08:05:17;;;;;;;;;;;19.80;99.90;;;;;;5022958;28;19979;-82
2022/03/08 08:07:43;;;;;;;;;;;19.70;99.90;;;;;;5040855;28;19924;-83
2022/03/08 08:10:09;;;;;;;;;;;19.80;99.90;;;;;;5028454;28;19913;-83
2022/03/08 08:12:35;;;;;;;;;;;20.80;99.90;;;;;;5017738;28;19918;-83
2022/03/08 08:15:00;;;;;;;;;;;19.80;99.90;;;;;;5017536;28;20393;-83
2022/03/08 08:17:26;;;;;;;;;;;19.30;99.90;;;;;;5016046;28;19913;-85
2022/03/08 08:19:51;;;;;;;;;;;19.50;99.90;;;;;;5015941;28;19913;-85
2022/03/08 08:22:17;;;;;;;;;;;19.00;99.90;;;;;;5021006;28;19913;-80
2022/03/08 08:24:42;;;;;;;;;;;18.50;99.90;;;;;;5013543;28;19924;-80
2022/03/08 08:27:08;;;;;;;;;;;18.40;99.90;;;;;;5013409;28;19914;-80
2022/03/08 08:29:33;;;;;;;;;;;17.30;99.90;;;;;;5013967;28;20000;-80
2022/03/08 08:31:59;;;;;;;;;;;17.80;99.90;;;;;;5014271;28;19913;-80
2022/03/08 08:34:25;;;;;;;;;;;19.20;99.90;;;;;;5013376;28;20433;-80
2022/03/08 08:36:50;;;;;;;;;;;18.90;99.90;;;;;;5014842;28;20008;-80
2022/03/08 08:39:16;;;;;;;;;;;20.00;99.90;;;;;;5014127;28;20378;-80
2022/03/08 08:41:42;;;;;;;;;;;19.20;99.90;;;;;;5014941;28;19913;-80
2022/03/08 08:44:07;;;;;;;;;;;19.90;99.90;;;;;;5012840;28;19933;-81
2022/03/08 08:46:33;;;;;;;;;;;19.20;99.90;;;;;;5015260;28;19918;-81
2022/03/08 08:48:58;;;;;;;;;;;19.70;99.90;;;;;;5033952;28;19921;-80
2022/03/08 08:51:24;;;;;;;;;;;20.40;99.90;;;;;;5018073;28;20008;-80
2022/03/08 08:53:49;;;;;;;;;;;19.10;99.90;;;;;;5016477;28;19913;-79
2022/03/08 08:56:15;;;;;;;;;;;20.80;99.90;;;;;;5033508;28;20293;-82
2022/03/08 08:58:40;;;;;;;;;;;20.60;99.90;;;;;;5018076;28;19928;-81
2022/03/08 09:01:06;;;;;;;;;;;20.20;99.90;;;;;;5016730;28;19917;-81
2022/03/08 09:03:31;;;;;;;;;;;19.80;99.90;;;;;;5014670;28;19914;-80
2022/03/08 09:05:58;;;;;;;;;;;21.30;99.90;;;;;;5018620;28;19920;-81
2022/03/08 09:08:24;;;;;;;;;;;21.80;99.90;;;;;;5017268;28;19993;-81
2022/03/08 09:10:50;;;;;;;;;;;22.30;99.90;;;;;;5016761;28;19945;-81
2022/03/08 09:13:16;;;;;;;;;;;22.50;99.90;;;;;;5036098;28;19964;-80
2022/03/08 09:15:41;;;;;;;;;;;21.70;99.90;;;;;;5020838;28;19923;-80
2022/03/08 09:18:08;;;;;;;;;;;21.40;99.90;;;;;;5015108;28;20486;-80
2022/03/08 09:20:33;;;;;;;;;;;20.10;99.90;;;;;;5016493;28;19914;-79
2022/03/08 09:22:59;;;;;;;;;;;20.50;99.90;;;;;;5016843;28;19913;-79
2022/03/08 09:25:25;;;;;;;;;;;20.10;99.90;;;;;;5016142;28;19910;-79
2022/03/08 09:27:50;;;;;;;;;;;20.70;99.90;;;;;;5016594;28;19909;-80
2022/03/08 09:30:15;;;;;;;;;;;19.20;99.90;;;;;;5016575;28;19952;-79
2022/03/08 09:32:41;;;;;;;;;;;19.90;99.90;;;;;;5015255;28;20374;-80
2022/03/08 09:35:07;;;;;;;;;;;20.00;99.90;;;;;;5016984;28;19964;-80
2022/03/08 09:37:32;;;;;;;;;;;20.00;99.90;;;;;;5017499;28;19925;-80
2022/03/08 09:39:58;;;;;;;;;;;21.20;99.90;;;;;;5017225;28;19999;-79
2022/03/08 09:42:23;;;;;;;;;;;21.80;99.90;;;;;;5015346;28;19920;-80
2022/03/08 09:44:49;;;;;;;;;;;21.00;99.90;;;;;;5016539;28;19917;-81
2022/03/08 09:47:15;;;;;;;;;;;21.10;99.90;;;;;;5018344;28;20306;-81
2022/03/08 09:49:40;;;;;;;;;;;21.30;99.90;;;;;;5019779;28;19910;-81
2022/03/08 09:52:06;;;;;;;;;;;21.00;99.90;;;;;;5017574;28;19919;-81
2022/03/08 09:54:31;;;;;;;;;;;21.40;99.90;;;;;;5018107;28;19914;-81
2022/03/08 09:56:57;;;;;;;;;;;22.60;99.90;;;;;;5033134;28;19914;-81
2022/03/08 09:59:29;;;;;;;;;;;22.10;99.90;;;;;;5017517;28;19917;-81
2022/03/08 10:01:55;;;;;;;;;;;21.50;99.90;;;;;;5018679;28;19921;-80
2022/03/08 10:04:20;;;;;;;;;;;20.50;99.90;;;;;;5017782;28;19914;-81
2022/03/08 10:06:47;;;;;;;;;;;20.10;99.90;;;;;;5018610;28;19909;-80
2022/03/08 10:09:14;;;;;;;;;;;19.20;99.90;;;;;;5017960;28;19926;-80
2022/03/08 10:11:40;;;;;;;;;;;19.00;99.90;;;;;;5018401;28;19909;-80
2022/03/08 10:14:05;;;;;;;;;;;20.60;99.90;;;;;;5017177;28;19944;-81
2022/03/08 10:16:42;;;;;;;;;;;19.60;99.90;;;;;;5018062;28;19909;-80
2022/03/08 10:19:09;;;;;;;;;;;19.00;99.90;;;;;;5016743;28;19929;-81
2022/03/08 10:21:38;;;;;;;;;;;19.70;99.90;;;;;;5018001;28;19964;-80
2022/03/08 10:24:04;;;;;;;;;;;18.60;99.90;;;;;;5016531;28;19916;-80
2022/03/08 10:26:32;;;;;;;;;;;18.70;99.90;;;;;;5016355;28;19960;-80
2022/03/08 10:28:57;;;;;;;;;;;19.10;99.90;;;;;;5018291;28;19910;-80
2022/03/08 10:31:23;;;;;;;;;;;19.90;99.90;;;;;;5017866;28;20305;-80
2022/03/08 10:33:49;;;;;;;;;;;19.20;99.90;;;;;;5017888;28;20364;-80
2022/03/08 10:36:22;;;;;;;;;;;18.40;99.90;;;;;;5013872;28;19913;-81
2022/03/08 10:39:04;;;;;;;;;;;19.70;99.90;;;;;;5017706;28;19924;-81
2022/03/08 10:41:30;;;;;;;;;;;19.10;99.90;;;;;;5016202;28;19909;-81
2022/03/08 10:43:55;;;;;;;;;;;18.40;99.90;;;;;;5015284;28;19916;-80
2022/03/08 10:46:21;;;;;;;;;;;18.60;99.90;;;;;;5019033;28;19932;-80
2022/03/08 10:48:47;;;;;;;;;;;18.60;99.90;;;;;;5019607;28;20514;-81
2022/03/08 10:51:17;;;;;;;;;;;18.20;99.90;;;;;;5034394;28;20397;-80
2022/03/08 10:53:43;;;;;;;;;;;18.60;99.90;;;;;;5015597;28;20278;-80
2022/03/08 10:56:09;;;;;;;;;;;18.60;99.90;;;;;;5017407;28;20370;-81
2022/03/08 10:58:47;;;;;;;;;;;19.10;99.90;;;;;;5016835;28;19920;-81
2022/03/08 11:01:12;;;;;;;;;;;19.20;99.90;;;;;;5017486;28;19913;-80
2022/03/08 11:03:38;;;;;;;;;;;18.30;99.90;;;;;;5018054;28;20404;-80
2022/03/08 11:06:06;;;;;;;;;;;17.70;99.90;;;;;;5017560;28;19913;-81
2022/03/08 11:08:31;;;;;;;;;;;18.70;99.90;;;;;;5017895;28;19914;-80
2022/03/08 11:10:57;;;;;;;;;;;18.70;99.90;;;;;;5015451;28;19914;-80
2022/03/08 11:13:22;;;;;;;;;;;18.80;99.90;;;;;;5018505;28;19913;-80
2022/03/08 11:15:48;;;;;;;;;;;18.60;99.90;;;;;;5022529;28;19917;-81
2022/03/08 11:18:14;;;;;;;;;;;17.80;99.90;;;;;;5036908;28;19913;-80
2022/03/08 11:20:40;;;;;;;;;;;17.80;99.90;;;;;;5024995;28;20401;-80
2022/03/08 11:23:06;;;;;;;;;;;18.50;99.90;;;;;;5021156;28;19910;-80
2022/03/08 11:25:33;;;;;;;;;;;18.50;99.90;;;;;;5018975;28;19964;-80
2022/03/08 11:28:00;;;;;;;;;;;18.70;99.90;;;;;;5016740;28;20401;-80
2022/03/08 11:30:27;;;;;;;;;;;19.40;99.90;;;;;;5016428;28;19913;-80
2022/03/08 11:32:53;;;;;;;;;;;18.90;99.90;;;;;;5015232;28;19941;-81
2022/03/08 11:35:22;;;;;;;;;;;18.90;99.90;;;;;;5018332;28;19917;-80
2022/03/08 11:37:49;;;;;;;;;;;18.00;99.90;;;;;;5021393;28;20020;-80
2022/03/08 11:40:16;;;;;;;;;;;18.20;99.90;;;;;;5036405;28;20586;-80
2022/03/08 11:42:45;;;;;;;;;;;18.20;99.90;;;;;;5013688;28;19916;-80
2022/03/08 11:45:19;;;;;;;;;;;18.80;99.90;;;;;;5013500;28;19914;-81
2022/03/08 11:47:46;;;;;;;;;;;17.50;99.90;;;;;;4999137;28;19910;-81
2022/03/08 11:50:22;;;;;;;;;;;17.90;99.90;;;;;;5031078;28;19910;-80
2022/03/08 11:52:52;;;;;;;;;;;17.60;99.90;;;;;;5015700;28;20366;-80
2022/03/08 11:55:23;;;;;;;;;;;18.10;99.90;;;;;;5016999;28;20416;-80
2022/03/08 11:57:49;;;;;;;;;;;17.40;99.90;;;;;;5017732;28;19909;-80
2022/03/08 12:00:20;;;;;;;;;;;17.20;99.90;;;;;;5017105;28;19948;-80
2022/03/08 12:02:45;;;;;;;;;;;17.50;99.90;;;;;;5015681;28;19946;-80
2022/03/08 12:05:30;;;;;;;;;;;17.20;99.90;;;;;;5016663;28;19909;-81
2022/03/08 12:07:55;;;;;;;;;;;16.90;99.90;;;;;;5017993;28;19914;-80
2022/03/08 12:10:25;;;;;;;;;;;17.00;99.90;;;;;;5016760;28;19960;-81
2022/03/08 12:12:54;;;;;;;;;;;16.80;99.90;;;;;;5017606;28;19909;-81
2022/03/08 12:15:21;;;;;;;;;;;15.90;99.90;;;;;;5017044;28;19917;-81
2022/03/08 12:18:05;;;;;;;;;;;16.60;99.90;;;;;;5016679;28;19909;-81
2022/03/08 12:20:30;;;;;;;;;;;16.70;99.90;;;;;;5016701;28;19910;-81
2022/03/08 12:23:09;;;;;;;;;;;16.70;99.90;;;;;;5017018;28;19909;-80
2022/03/08 12:25:34;;;;;;;;;;;17.10;99.90;;;;;;5020517;28;19914;-80
2022/03/08 12:28:00;;;;;;;;;;;17.10;99.90;;;;;;5018475;28;19910;-80
2022/03/08 12:30:41;;;;;;;;;;;17.50;99.90;;;;;;5019021;28;19921;-80
2022/03/08 12:33:06;;;;;;;;;;;17.60;99.90;;;;;;5018403;28;19909;-81
2022/03/08 12:35:32;;;;;;;;;;;18.00;99.90;;;;;;5021750;28;20363;-80
2022/03/08 12:37:59;;;;;;;;;;;17.70;99.90;;;;;;5020135;28;19909;-81
2022/03/08 12:40:35;;;;;;;;;;;17.40;99.90;;;;;;5012657;28;20300;-81
2022/03/08 12:43:11;;;;;;;;;;;17.00;99.90;;;;;;5018807;28;19953;-81
2022/03/08 12:45:38;;;;;;;;;;;16.20;99.90;;;;;;5018065;28;20008;-80
2022/03/08 12:48:04;;;;;;;;;;;17.20;99.90;;;;;;5024071;28;19975;-80
2022/03/08 12:50:38;;;;;;;;;;;17.00;99.90;;;;;;5035735;28;19953;-80
2022/03/08 12:53:04;;;;;;;;;;;16.50;99.90;;;;;;5020047;28;19909;-80
2022/03/08 12:55:38;;;;;;;;;;;16.60;99.90;;;;;;5019663;28;19924;-80
2022/03/08 12:58:05;;;;;;;;;;;16.50;99.90;;;;;;5018728;28;19910;-80
2022/03/08 13:00:33;;;;;;;;;;;16.70;99.90;;;;;;5019597;28;19910;-80
2022/03/08 13:02:58;;;;;;;;;;;16.60;99.90;;;;;;5017898;28;20263;-80
2022/03/08 13:05:34;;;;;;;;;;;17.30;99.90;;;;;;5037001;28;19916;-80
2022/03/08 13:08:00;;;;;;;;;;;17.00;99.90;;;;;;5038811;28;19957;-80
2022/03/08 13:10:26;;;;;;;;;;;16.60;99.90;;;;;;5054711;28;19909;-80
2022/03/08 13:12:53;;;;;;;;;;;16.20;99.90;;;;;;5037763;28;19909;-80
2022/03/08 13:15:22;;;;;;;;;;;16.40;99.90;;;;;;5017642;28;19969;-80
2022/03/08 13:17:51;;;;;;;;;;;16.00;99.90;;;;;;5016882;28;19973;-80
2022/03/08 13:20:28;;;;;;;;;;;16.30;99.90;;;;;;5030633;28;19968;-81
2022/03/08 13:22:55;;;;;;;;;;;16.20;99.90;;;;;;5037487;28;19909;-81
2022/03/08 13:25:20;;;;;;;;;;;15.90;99.90;;;;;;5019688;28;19980;-81
2022/03/08 13:27:50;;;;;;;;;;;15.50;99.90;;;;;;5019178;28;19944;-81
2022/03/08 13:30:16;;;;;;;;;;;16.00;99.90;;;;;;5017811;28;19910;-81
2022/03/08 13:32:42;;;;;;;;;;;16.10;99.90;;;;;;5017448;28;19928;-81
2022/03/08 13:35:07;;;;;;;;;;;16.70;99.90;;;;;;5019002;28;20239;-81
2022/03/08 13:37:49;;;;;;;;;;;16.20;99.90;;;;;;5018339;28;19960;-81
2022/03/08 13:40:27;;;;;;;;;;;16.30;99.90;;;;;;5018741;28;20314;-81
2022/03/08 13:42:55;;;;;;;;;;;16.10;99.90;;;;;;5017152;28;19913;-82
2022/03/08 13:45:21;;;;;;;;;;;16.30;99.90;;;;;;5017726;28;20404;-82
2022/03/08 13:47:52;;;;;;;;;;;15.90;99.90;;;;;;5018943;28;19913;-81
2022/03/08 13:50:22;;;;;;;;;;;16.00;99.90;;;;;;5033470;28;19909;-82
2022/03/08 13:53:08;;;;;;;;;;;16.00;99.90;;;;;;5016136;28;19928;-82
2022/03/08 13:55:34;;;;;;;;;;;16.20;99.90;;;;;;5016845;28;20301;-79
2022/03/08 13:58:03;;;;;;;;;;;15.80;99.90;;;;;;5017771;28;19940;-79
2022/03/08 14:00:33;;;;;;;;;;;16.10;99.90;;;;;;5037146;28;19909;-79
2022/03/08 14:02:59;;;;;;;;;;;15.60;99.90;;;;;;5037095;28;19916;-79
2022/03/08 14:05:25;;;;;;;;;;;15.40;99.90;;;;;;5037470;28;20023;-79
2022/03/08 14:07:57;;;;;;;;;;;15.10;99.90;;;;;;5038441;28;19923;-79
2022/03/08 14:10:23;;;;;;;;;;;14.90;99.90;;;;;;5020286;28;20000;-79
2022/03/08 14:12:50;;;;;;;;;;;15.10;99.90;;;;;;5016882;28;19913;-79
2022/03/08 14:15:17;;;;;;;;;;;15.30;99.90;;;;;;5016667;28;19914;-79
2022/03/08 14:17:43;;;;;;;;;;;15.10;99.90;;;;;;5017232;28;20004;-79
2022/03/08 14:20:16;;;;;;;;;;;15.10;99.90;;;;;;5016971;28;19910;-80